sensor_id;sensor_type;location;lat;lon;timestamp;pressure;altitude;pressure_sealevel;temperature;humidity
84483;BME280;74703;51.284;22.590;2023-12-28T00:02:43;100028.72;;;-1.61;86.62
84483;BME280;74703;51.284;22.590;2023-12-28T00:07:44;100008.25;;;-1.67;87.19
84483;BME280;74703;51.284;22.590;2023-12-28T00:12:44;100009.41;;;-1.39;87.28
84483;BME280;74703;51.284;22.590;2023-12-28T00:17:45;99994.97;;;-1.30;87.01
84483;BME280;74703;51.284;22.590;2023-12-28T00:22:46;99955.59;;;-1.58;86.95
84483;BME280;74703;51.284;22.590;2023-12-28T00:27:46;99948.88;;;-1.50;87.25
84483;BME280;74703;51.284;22.590;2023-12-28T00:32:47;99976.03;;;-1.57;87.06
84483;BME280;74703;51.284;22.590;2023-12-28T00:37:48;99961.59;;;-1.55;86.97
84483;BME280;74703;51.284;22.590;2023-12-28T00:42:48;99998.38;;;-1.36;86.43
84483;BME280;74703;51.284;22.590;2023-12-28T00:47:49;99991.53;;;-1.39;86.69
84483;BME280;74703;51.284;22.590;2023-12-28T00:52:52;99982.34;;;-1.17;86.99
84483;BME280;74703;51.284;22.590;2023-12-28T00:57:52;99961.00;;;-1.26;86.57
84483;BME280;74703;51.284;22.590;2023-12-28T01:02:53;99979.69;;;-1.27;86.60
84483;BME280;74703;51.284;22.590;2023-12-28T01:07:54;99978.16;;;-1.10;86.17
84483;BME280;74703;51.284;22.590;2023-12-28T01:12:54;99956.88;;;-1.12;86.58
84483;BME280;74703;51.284;22.590;2023-12-28T01:17:56;99960.28;;;-1.10;86.82
84483;BME280;74703;51.284;22.590;2023-12-28T01:22:57;99952.78;;;-0.87;86.92
84483;BME280;74703;51.284;22.590;2023-12-28T01:27:57;99937.38;;;-0.95;86.24
84483;BME280;74703;51.284;22.590;2023-12-28T01:32:58;99947.59;;;-0.95;86.12
84483;BME280;74703;51.284;22.590;2023-12-28T01:37:58;99926.22;;;-1.12;86.01
84483;BME280;74703;51.284;22.590;2023-12-28T01:43:01;99947.59;;;-0.98;86.12
84483;BME280;74703;51.284;22.590;2023-12-28T01:48:02;99933.88;;;-1.12;85.97
84483;BME280;74703;51.284;22.590;2023-12-28T01:53:04;99908.22;;;-1.29;85.98
84483;BME280;74703;51.284;22.590;2023-12-28T01:58:04;99919.38;;;-1.14;85.97
84483;BME280;74703;51.284;22.590;2023-12-28T02:03:06;99887.72;;;-1.38;85.96
84483;BME280;74703;51.284;22.590;2023-12-28T02:08:07;99909.06;;;-1.30;85.82
84483;BME280;74703;51.284;22.590;2023-12-28T02:13:08;99905.63;;;-1.35;86.45
84483;BME280;74703;51.284;22.590;2023-12-28T02:18:26;99920.06;;;-1.34;86.36
84483;BME280;74703;51.284;22.590;2023-12-28T02:23:32;99866.34;;;-1.54;86.74
84483;BME280;74703;51.284;22.590;2023-12-28T02:28:33;99875.66;;;-1.54;86.12
84483;BME280;74703;51.284;22.590;2023-12-28T02:33:40;99877.41;;;-1.53;86.53
84483;BME280;74703;51.284;22.590;2023-12-28T02:38:44;99876.56;;;-1.54;86.81
84483;BME280;74703;51.284;22.590;2023-12-28T02:43:47;99839.91;;;-1.62;86.78
84483;BME280;74703;51.284;22.590;2023-12-28T02:48:49;99851.06;;;-1.51;86.94
84483;BME280;74703;51.284;22.590;2023-12-28T02:53:49;99818.66;;;-1.59;86.42
84483;BME280;74703;51.284;22.590;2023-12-28T02:58:50;99817.00;;;-1.53;86.60
84483;BME280;74703;51.284;22.590;2023-12-28T03:03:50;99801.53;;;-1.74;86.77
84483;BME280;74703;51.284;22.590;2023-12-28T03:08:51;99810.13;;;-1.66;86.84
84483;BME280;74703;51.284;22.590;2023-12-28T03:13:52;99772.66;;;-1.69;87.01
84483;BME280;74703;51.284;22.590;2023-12-28T03:18:52;99757.31;;;-1.75;86.84
84483;BME280;74703;51.284;22.590;2023-12-28T03:23:53;99763.41;;;-1.53;86.95
84483;BME280;74703;51.284;22.590;2023-12-28T03:28:53;99752.31;;;-1.59;87.04
84483;BME280;74703;51.284;22.590;2023-12-28T03:33:54;99752.38;;;-1.49;86.98
84483;BME280;74703;51.284;22.590;2023-12-28T03:38:54;99771.09;;;-1.47;86.90
84483;BME280;74703;51.284;22.590;2023-12-28T03:43:55;99755.72;;;-1.59;86.18
84483;BME280;74703;51.284;22.590;2023-12-28T03:48:55;99768.59;;;-1.39;86.51
84483;BME280;74703;51.284;22.590;2023-12-28T03:53:56;99746.47;;;-1.40;86.27
84483;BME280;74703;51.284;22.590;2023-12-28T03:58:56;99732.84;;;-1.44;86.20
84483;BME280;74703;51.284;22.590;2023-12-28T04:03:57;99730.19;;;-1.59;86.18
84483;BME280;74703;51.284;22.590;2023-12-28T04:08:57;99730.16;;;-1.65;86.45
84483;BME280;74703;51.284;22.590;2023-12-28T04:13:58;99718.19;;;-1.74;86.76
84483;BME280;74703;51.284;22.590;2023-12-28T04:18:59;99710.56;;;-1.74;86.76
84483;BME280;74703;51.284;22.590;2023-12-28T04:23:59;99691.78;;;-1.82;87.22
84483;BME280;74703;51.284;22.590;2023-12-28T04:29:00;99699.47;;;-1.77;87.20
84483;BME280;74703;51.284;22.590;2023-12-28T04:34:00;99693.56;;;-1.70;87.16
84483;BME280;74703;51.284;22.590;2023-12-28T04:39:01;99692.78;;;-1.60;86.84
84483;BME280;74703;51.284;22.590;2023-12-28T04:44:01;99680.03;;;-1.55;86.69
84483;BME280;74703;51.284;22.590;2023-12-28T04:49:02;99669.84;;;-1.57;86.85
84483;BME280;74703;51.284;22.590;2023-12-28T04:54:02;99670.69;;;-1.53;86.33
84483;BME280;74703;51.284;22.590;2023-12-28T04:59:03;99665.53;;;-1.61;86.03
84483;BME280;74703;51.284;22.590;2023-12-28T05:04:03;99659.59;;;-1.66;86.48
84483;BME280;74703;51.284;22.590;2023-12-28T05:09:04;99662.97;;;-1.66;87.02
84483;BME280;74703;51.284;22.590;2023-12-28T05:14:04;99644.25;;;-1.72;86.76
84483;BME280;74703;51.284;22.590;2023-12-28T05:19:06;99662.97;;;-1.67;87.16
84483;BME280;74703;51.284;22.590;2023-12-28T05:24:06;99645.06;;;-1.73;87.22
84483;BME280;74703;51.284;22.590;2023-12-28T05:29:07;99630.63;;;-1.67;87.23
84483;BME280;74703;51.284;22.590;2023-12-28T05:34:08;99627.31;;;-1.53;87.54
84483;BME280;74703;51.284;22.590;2023-12-28T05:39:08;99588.19;;;-1.52;87.23
84483;BME280;74703;51.284;22.590;2023-12-28T05:44:09;99576.28;;;-1.46;87.29
84483;BME280;74703;51.284;22.590;2023-12-28T05:49:10;99579.75;;;-1.19;87.48
84483;BME280;74703;51.284;22.590;2023-12-28T05:54:10;99593.41;;;-0.88;87.72
84483;BME280;74703;51.284;22.590;2023-12-28T05:59:11;99584.91;;;-0.76;87.67
84483;BME280;74703;51.284;22.590;2023-12-28T06:04:11;99578.13;;;-0.66;87.49
84483;BME280;74703;51.284;22.590;2023-12-28T06:09:12;99584.91;;;-0.53;87.08
84483;BME280;74703;51.284;22.590;2023-12-28T06:14:13;99569.53;;;-0.22;86.59
84483;BME280;74703;51.284;22.590;2023-12-28T06:19:14;99561.03;;;-0.32;86.15
84483;BME280;74703;51.284;22.590;2023-12-28T06:24:14;99553.31;;;-0.18;85.90
84483;BME280;74703;51.284;22.590;2023-12-28T06:29:15;99550.72;;;-0.06;85.74
84483;BME280;74703;51.284;22.590;2023-12-28T06:34:16;99550.72;;;0.03;85.28
84483;BME280;74703;51.284;22.590;2023-12-28T06:39:17;99533.66;;;0.04;85.42
84483;BME280;74703;51.284;22.590;2023-12-28T06:44:17;99520.84;;;0.02;84.73
84483;BME280;74703;51.284;22.590;2023-12-28T06:49:18;99544.72;;;0.07;85.34
84483;BME280;74703;51.284;22.590;2023-12-28T06:54:19;99534.47;;;0.09;85.46
84483;BME280;74703;51.284;22.590;2023-12-28T06:59:19;99531.00;;;0.25;84.69
84483;BME280;74703;51.284;22.590;2023-12-28T07:04:20;99537.75;;;0.35;85.04
84483;BME280;74703;51.284;22.590;2023-12-28T07:09:21;99508.72;;;0.45;84.47
84483;BME280;74703;51.284;22.590;2023-12-28T07:14:22;99529.78;;;0.84;83.95
84483;BME280;74703;51.284;22.590;2023-12-28T07:19:22;99485.28;;;0.96;82.95
84483;BME280;74703;51.284;22.590;2023-12-28T07:24:23;99501.28;;;1.24;81.89
84483;BME280;74703;51.284;22.590;2023-12-28T07:29:23;99497.63;;;1.50;81.13
84483;BME280;74703;51.284;22.590;2023-12-28T07:34:24;99509.50;;;1.57;80.68
84483;BME280;74703;51.284;22.590;2023-12-28T07:39:24;99489.88;;;1.53;80.18
84483;BME280;74703;51.284;22.590;2023-12-28T07:44:28;99502.63;;;1.62;80.51
84483;BME280;74703;51.284;22.590;2023-12-28T07:49:30;99499.88;;;1.79;80.17
84483;BME280;74703;51.284;22.590;2023-12-28T07:54:31;99480.97;;;1.88;79.87
84483;BME280;74703;51.284;22.590;2023-12-28T07:59:32;99490.31;;;1.92;79.91
84483;BME280;74703;51.284;22.590;2023-12-28T08:04:32;99466.38;;;1.91;79.62
84483;BME280;74703;51.284;22.590;2023-12-28T08:09:33;99489.16;;;2.16;79.34
84483;BME280;74703;51.284;22.590;2023-12-28T08:14:34;99459.19;;;2.16;78.82
84483;BME280;74703;51.284;22.590;2023-12-28T08:19:35;99466.66;;;2.35;78.37
84483;BME280;74703;51.284;22.590;2023-12-28T08:24:35;99460.22;;;2.65;77.52
84483;BME280;74703;51.284;22.590;2023-12-28T08:29:36;99454.56;;;2.97;76.76
84483;BME280;74703;51.284;22.590;2023-12-28T08:34:38;99456.66;;;3.25;75.85
84483;BME280;74703;51.284;22.590;2023-12-28T08:39:39;99457.94;;;3.49;75.02
84483;BME280;74703;51.284;22.590;2023-12-28T08:44:40;99469.47;;;3.73;74.28
84483;BME280;74703;51.284;22.590;2023-12-28T08:49:41;99448.84;;;3.76;74.14
84483;BME280;74703;51.284;22.590;2023-12-28T08:54:41;99475.81;;;3.98;73.29
84483;BME280;74703;51.284;22.590;2023-12-28T08:59:42;99466.16;;;4.08;73.24
84483;BME280;74703;51.284;22.590;2023-12-28T09:04:43;99438.53;;;4.18;72.88
84483;BME280;74703;51.284;22.590;2023-12-28T09:09:43;99459.75;;;4.27;72.87
84483;BME280;74703;51.284;22.590;2023-12-28T09:14:44;99433.66;;;4.43;71.92
84483;BME280;74703;51.284;22.590;2023-12-28T09:19:44;99403.34;;;4.54;71.66
84483;BME280;74703;51.284;22.590;2023-12-28T09:24:45;99413.97;;;4.76;70.54
84483;BME280;74703;51.284;22.590;2023-12-28T09:29:45;99390.94;;;4.68;70.82
84483;BME280;74703;51.284;22.590;2023-12-28T09:34:46;99389.53;;;4.91;69.78
84483;BME280;74703;51.284;22.590;2023-12-28T09:39:46;99393.66;;;4.98;69.76
84483;BME280;74703;51.284;22.590;2023-12-28T09:44:47;99376.34;;;5.01;69.89
84483;BME280;74703;51.284;22.590;2023-12-28T09:49:49;99369.44;;;5.03;69.07
84483;BME280;74703;51.284;22.590;2023-12-28T09:54:49;99381.09;;;5.17;69.08
84483;BME280;74703;51.284;22.590;2023-12-28T09:59:50;99367.00;;;5.30;68.72
84483;BME280;74703;51.284;22.590;2023-12-28T10:04:51;99364.38;;;5.32;68.89
84483;BME280;74703;51.284;22.590;2023-12-28T10:09:52;99356.28;;;5.44;68.22
84483;BME280;74703;51.284;22.590;2023-12-28T10:14:53;99340.34;;;5.59;68.36
84483;BME280;74703;51.284;22.590;2023-12-28T10:19:54;99340.91;;;5.70;67.92
84483;BME280;74703;51.284;22.590;2023-12-28T10:24:56;99348.38;;;5.80;67.46
84483;BME280;74703;51.284;22.590;2023-12-28T10:29:57;99328.72;;;6.04;66.51
84483;BME280;74703;51.284;22.590;2023-12-28T10:34:57;99336.09;;;6.16;66.21
84483;BME280;74703;51.284;22.590;2023-12-28T10:39:59;99337.28;;;6.32;66.32
84483;BME280;74703;51.284;22.590;2023-12-28T10:45:10;99326.47;;;6.48;65.20
84483;BME280;74703;51.284;22.590;2023-12-28T10:50:11;99295.16;;;6.57;64.23
84483;BME280;74703;51.284;22.590;2023-12-28T10:55:45;99329.38;;;6.88;63.94
84483;BME280;74703;51.284;22.590;2023-12-28T11:00:53;99316.38;;;7.15;63.33
84483;BME280;74703;51.284;22.590;2023-12-28T11:05:55;99315.00;;;7.30;62.73
84483;BME280;74703;51.284;22.590;2023-12-28T11:10:57;99312.22;;;7.34;62.06
84483;BME280;74703;51.284;22.590;2023-12-28T11:15:58;99290.06;;;7.27;62.51
84483;BME280;74703;51.284;22.590;2023-12-28T11:20:59;99276.59;;;7.41;62.32
84483;BME280;74703;51.284;22.590;2023-12-28T11:26:00;99285.97;;;7.45;61.76
84483;BME280;74703;51.284;22.590;2023-12-28T11:31:01;99296.59;;;7.38;62.30
84483;BME280;74703;51.284;22.590;2023-12-28T11:36:08;99286.47;;;7.31;62.38
84483;BME280;74703;51.284;22.590;2023-12-28T11:41:09;99291.84;;;7.49;62.28
84483;BME280;74703;51.284;22.590;2023-12-28T11:46:09;99279.31;;;7.38;62.58
84483;BME280;74703;51.284;22.590;2023-12-28T11:51:10;99295.59;;;7.42;63.01
84483;BME280;74703;51.284;22.590;2023-12-28T11:56:11;99276.56;;;7.19;63.66
84483;BME280;74703;51.284;22.590;2023-12-28T12:01:12;99291.03;;;7.25;63.58
84483;BME280;74703;51.284;22.590;2023-12-28T12:06:13;99301.66;;;7.17;64.32
84483;BME280;74703;51.284;22.590;2023-12-28T12:11:13;99300.28;;;7.07;64.41
84483;BME280;74703;51.284;22.590;2023-12-28T12:16:14;99291.28;;;6.94;64.79
84483;BME280;74703;51.284;22.590;2023-12-28T12:21:15;99302.28;;;6.99;64.43
84483;BME280;74703;51.284;22.590;2023-12-28T12:26:18;99288.34;;;6.79;65.22
84483;BME280;74703;51.284;22.590;2023-12-28T12:31:19;99291.09;;;6.75;64.97
84483;BME280;74703;51.284;22.590;2023-12-28T12:36:20;99270.50;;;6.47;66.49
84483;BME280;74703;51.284;22.590;2023-12-28T12:41:22;99293.03;;;6.68;65.89
84483;BME280;74703;51.284;22.590;2023-12-28T12:46:23;99304.00;;;6.50;66.45
84483;BME280;74703;51.284;22.590;2023-12-28T12:51:25;99304.47;;;6.61;66.29
84483;BME280;74703;51.284;22.590;2023-12-28T12:56:26;99296.63;;;6.64;65.74
84483;BME280;74703;51.284;22.590;2023-12-28T13:01:27;99293.84;;;6.43;66.62
84483;BME280;74703;51.284;22.590;2023-12-28T13:06:28;99301.41;;;6.50;67.22
84483;BME280;74703;51.284;22.590;2023-12-28T13:11:29;99284.44;;;6.42;68.66
84483;BME280;74703;51.284;22.590;2023-12-28T13:16:30;99261.03;;;6.21;68.75
84483;BME280;74703;51.284;22.590;2023-12-28T13:21:31;99295.25;;;6.54;67.80
84483;BME280;74703;51.284;22.590;2023-12-28T13:26:31;99291.06;;;6.50;68.26
84483;BME280;74703;51.284;22.590;2023-12-28T13:31:32;99265.69;;;6.36;68.39
84483;BME280;74703;51.284;22.590;2023-12-28T13:36:32;99295.50;;;6.46;68.70
84483;BME280;74703;51.284;22.590;2023-12-28T13:41:34;99282.28;;;6.29;69.19
84483;BME280;74703;51.284;22.590;2023-12-28T13:46:35;99282.88;;;6.37;69.07
84483;BME280;74703;51.284;22.590;2023-12-28T13:51:36;99317.66;;;6.53;68.59
84483;BME280;74703;51.284;22.590;2023-12-28T13:56:37;99313.16;;;6.33;69.28
84483;BME280;74703;51.284;22.590;2023-12-28T14:01:38;99313.06;;;6.36;69.51
84483;BME280;74703;51.284;22.590;2023-12-28T14:06:39;99318.72;;;6.48;68.85
84483;BME280;74703;51.284;22.590;2023-12-28T14:11:39;99297.34;;;6.42;68.57
84483;BME280;74703;51.284;22.590;2023-12-28T14:16:42;99316.38;;;6.40;69.46
84483;BME280;74703;51.284;22.590;2023-12-28T14:21:42;99296.94;;;6.28;69.63
84483;BME280;74703;51.284;22.590;2023-12-28T14:26:44;99326.94;;;6.59;68.91
84483;BME280;74703;51.284;22.590;2023-12-28T14:31:45;99315.34;;;6.46;69.23
84483;BME280;74703;51.284;22.590;2023-12-28T14:36:47;99305.50;;;6.30;69.92
84483;BME280;74703;51.284;22.590;2023-12-28T14:41:51;99322.16;;;6.48;69.09
84483;BME280;74703;51.284;22.590;2023-12-28T14:46:51;99344.94;;;6.62;68.91
84483;BME280;74703;51.284;22.590;2023-12-28T14:51:52;99328.84;;;6.54;68.87
84483;BME280;74703;51.284;22.590;2023-12-28T14:56:52;99343.41;;;6.56;69.58
84483;BME280;74703;51.284;22.590;2023-12-28T15:01:53;99353.72;;;6.56;69.29
84483;BME280;74703;51.284;22.590;2023-12-28T15:06:53;99357.00;;;6.63;70.11
84483;BME280;74703;51.284;22.590;2023-12-28T15:11:54;99368.94;;;6.65;70.20
84483;BME280;74703;51.284;22.590;2023-12-28T15:16:55;99362.28;;;6.58;70.75
84483;BME280;74703;51.284;22.590;2023-12-28T15:21:56;99348.84;;;6.49;71.18
84483;BME280;74703;51.284;22.590;2023-12-28T15:26:57;99347.94;;;6.50;71.11
84483;BME280;74703;51.284;22.590;2023-12-28T15:31:58;99352.69;;;6.62;70.90
84483;BME280;74703;51.284;22.590;2023-12-28T15:36:59;99357.56;;;6.71;70.96
84483;BME280;74703;51.284;22.590;2023-12-28T15:41:59;99329.84;;;6.50;71.38
84483;BME280;74703;51.284;22.590;2023-12-28T15:47:00;99369.66;;;6.71;70.73
84483;BME280;74703;51.284;22.590;2023-12-28T15:52:03;99350.81;;;6.67;71.18
84483;BME280;74703;51.284;22.590;2023-12-28T15:57:04;99340.47;;;6.67;70.57
84483;BME280;74703;51.284;22.590;2023-12-28T16:02:05;99324.22;;;6.63;70.72
84483;BME280;74703;51.284;22.590;2023-12-28T16:07:05;99340.59;;;6.62;71.13
84483;BME280;74703;51.284;22.590;2023-12-28T16:12:06;99336.03;;;6.71;70.47
84483;BME280;74703;51.284;22.590;2023-12-28T16:17:08;99342.88;;;6.72;70.46
84483;BME280;74703;51.284;22.590;2023-12-28T16:22:11;99332.66;;;6.69;70.24
84483;BME280;74703;51.284;22.590;2023-12-28T16:27:11;99308.91;;;6.82;68.71
84483;BME280;74703;51.284;22.590;2023-12-28T16:32:12;99311.25;;;6.90;68.49
84483;BME280;74703;51.284;22.590;2023-12-28T16:37:12;99334.66;;;7.10;68.57
84483;BME280;74703;51.284;22.590;2023-12-28T16:42:13;99327.84;;;7.08;68.81
84483;BME280;74703;51.284;22.590;2023-12-28T16:47:13;99302.03;;;7.06;68.29
84483;BME280;74703;51.284;22.590;2023-12-28T16:52:14;99303.72;;;7.07;67.90
84483;BME280;74703;51.284;22.590;2023-12-28T16:57:16;99299.56;;;7.03;68.14
84483;BME280;74703;51.284;22.590;2023-12-28T17:02:17;99305.78;;;6.98;68.31
84483;BME280;74703;51.284;22.590;2023-12-28T17:07:18;99307.34;;;7.02;68.05
84483;BME280;74703;51.284;22.590;2023-12-28T17:12:30;99321.06;;;7.05;68.18
84483;BME280;74703;51.284;22.590;2023-12-28T17:17:36;99305.41;;;6.83;68.71
84483;BME280;74703;51.284;22.590;2023-12-28T17:22:45;99315.75;;;6.83;69.58
84483;BME280;74703;51.284;22.590;2023-12-28T17:27:52;99327.59;;;6.91;69.56
84483;BME280;74703;51.284;22.590;2023-12-28T17:32:57;99324.75;;;6.73;70.28
84483;BME280;74703;51.284;22.590;2023-12-28T17:37:58;99312.53;;;6.52;70.35
84483;BME280;74703;51.284;22.590;2023-12-28T17:43:15;99318.44;;;6.55;70.09
84483;BME280;74703;51.284;22.590;2023-12-28T17:48:21;99327.41;;;6.45;70.28
84483;BME280;74703;51.284;22.590;2023-12-28T17:53:23;99318.09;;;6.13;71.08
84483;BME280;74703;51.284;22.590;2023-12-28T17:58:24;99334.00;;;6.01;71.68
84483;BME280;74703;51.284;22.590;2023-12-28T18:03:25;99309.16;;;5.67;72.17
84483;BME280;74703;51.284;22.590;2023-12-28T18:08:26;99326.34;;;5.68;72.41
84483;BME280;74703;51.284;22.590;2023-12-28T18:13:27;99328.16;;;5.66;72.47
84483;BME280;74703;51.284;22.590;2023-12-28T18:18:27;99327.13;;;5.42;73.15
84483;BME280;74703;51.284;22.590;2023-12-28T18:23:28;99344.41;;;5.38;73.53
84483;BME280;74703;51.284;22.590;2023-12-28T18:28:30;99336.38;;;5.18;74.40
84483;BME280;74703;51.284;22.590;2023-12-28T18:33:32;99337.91;;;5.25;74.65
84483;BME280;74703;51.284;22.590;2023-12-28T18:38:33;99331.16;;;5.21;74.83
84483;BME280;74703;51.284;22.590;2023-12-28T18:43:34;99342.06;;;5.29;75.16
84483;BME280;74703;51.284;22.590;2023-12-28T18:48:35;99334.13;;;5.37;75.29
84483;BME280;74703;51.284;22.590;2023-12-28T18:53:37;99306.75;;;5.33;75.46
84483;BME280;74703;51.284;22.590;2023-12-28T18:58:37;99308.38;;;5.35;75.24
84483;BME280;74703;51.284;22.590;2023-12-28T19:03:38;99317.31;;;5.53;75.23
84483;BME280;74703;51.284;22.590;2023-12-28T19:08:41;99307.13;;;5.48;75.07
84483;BME280;74703;51.284;22.590;2023-12-28T19:13:49;99327.09;;;5.71;74.25
84483;BME280;74703;51.284;22.590;2023-12-28T19:18:51;99324.13;;;5.56;74.71
84483;BME280;74703;51.284;22.590;2023-12-28T19:23:51;99306.84;;;5.28;75.45
84483;BME280;74703;51.284;22.590;2023-12-28T19:28:54;99325.00;;;5.25;75.99
84483;BME280;74703;51.284;22.590;2023-12-28T19:33:55;99323.94;;;5.32;75.58
84483;BME280;74703;51.284;22.590;2023-12-28T19:38:56;99348.94;;;5.60;74.93
84483;BME280;74703;51.284;22.590;2023-12-28T19:43:57;99322.25;;;5.31;75.02
84483;BME280;74703;51.284;22.590;2023-12-28T19:49:01;99319.66;;;5.31;75.01
84483;BME280;74703;51.284;22.590;2023-12-28T19:54:03;99324.63;;;5.39;75.21
84483;BME280;74703;51.284;22.590;2023-12-28T19:59:07;99336.41;;;5.16;75.83
84483;BME280;74703;51.284;22.590;2023-12-28T20:04:08;99330.00;;;5.00;76.11
84483;BME280;74703;51.284;22.590;2023-12-28T20:09:09;99341.66;;;5.13;75.85
84483;BME280;74703;51.284;22.590;2023-12-28T20:14:10;99322.44;;;4.94;76.30
84483;BME280;74703;51.284;22.590;2023-12-28T20:19:11;99324.34;;;4.86;76.71
84483;BME280;74703;51.284;22.590;2023-12-28T20:24:11;99330.75;;;4.71;76.93
84483;BME280;74703;51.284;22.590;2023-12-28T20:29:12;99325.69;;;4.68;77.21
84483;BME280;74703;51.284;22.590;2023-12-28T20:34:13;99335.91;;;4.71;77.34
84483;BME280;74703;51.284;22.590;2023-12-28T20:39:13;99347.19;;;4.67;78.22
84483;BME280;74703;51.284;22.590;2023-12-28T20:44:14;99320.06;;;4.52;78.07
84483;BME280;74703;51.284;22.590;2023-12-28T20:49:15;99350.69;;;4.64;78.53
84483;BME280;74703;51.284;22.590;2023-12-28T20:54:15;99328.22;;;4.69;78.00
84483;BME280;74703;51.284;22.590;2023-12-28T20:59:16;99348.72;;;4.74;77.81
84483;BME280;74703;51.284;22.590;2023-12-28T21:04:17;99337.66;;;4.69;77.95
84483;BME280;74703;51.284;22.590;2023-12-28T21:09:17;99342.28;;;4.57;78.37
84483;BME280;74703;51.284;22.590;2023-12-28T21:14:18;99337.22;;;4.53;78.34
84483;BME280;74703;51.284;22.590;2023-12-28T21:19:18;99341.34;;;4.60;78.32
84483;BME280;74703;51.284;22.590;2023-12-28T21:24:19;99353.44;;;4.56;78.10
84483;BME280;74703;51.284;22.590;2023-12-28T21:29:19;99361.22;;;4.55;78.47
84483;BME280;74703;51.284;22.590;2023-12-28T21:34:20;99339.84;;;4.51;78.23
84483;BME280;74703;51.284;22.590;2023-12-28T21:39:21;99366.53;;;4.47;78.62
84483;BME280;74703;51.284;22.590;2023-12-28T21:44:22;99346.47;;;4.26;78.99
84483;BME280;74703;51.284;22.590;2023-12-28T21:49:23;99338.88;;;4.20;79.33
84483;BME280;74703;51.284;22.590;2023-12-28T21:54:23;99333.94;;;4.10;78.92
84483;BME280;74703;51.284;22.590;2023-12-28T21:59:24;99323.09;;;3.96;79.56
84483;BME280;74703;51.284;22.590;2023-12-28T22:04:25;99329.06;;;4.00;79.59
84483;BME280;74703;51.284;22.590;2023-12-28T22:09:26;99343.63;;;3.99;80.16
84483;BME280;74703;51.284;22.590;2023-12-28T22:14:27;99357.31;;;4.01;80.06
84483;BME280;74703;51.284;22.590;2023-12-28T22:19:28;99361.72;;;3.96;80.34
84483;BME280;74703;51.284;22.590;2023-12-28T22:24:28;99340.81;;;3.73;80.37
84483;BME280;74703;51.284;22.590;2023-12-28T22:29:29;99333.16;;;3.70;80.77
84483;BME280;74703;51.284;22.590;2023-12-28T22:34:30;99341.53;;;3.78;80.67
84483;BME280;74703;51.284;22.590;2023-12-28T22:39:31;99340.69;;;3.79;80.69
84483;BME280;74703;51.284;22.590;2023-12-28T22:44:32;99334.78;;;3.72;80.51
84483;BME280;74703;51.284;22.590;2023-12-28T22:49:32;99345.56;;;3.91;80.30
84483;BME280;74703;51.284;22.590;2023-12-28T22:54:33;99347.94;;;3.99;80.01
84483;BME280;74703;51.284;22.590;2023-12-28T22:59:33;99295.53;;;3.64;80.30
84483;BME280;74703;51.284;22.590;2023-12-28T23:04:35;99346.88;;;3.68;81.11
84483;BME280;74703;51.284;22.590;2023-12-28T23:09:35;99310.47;;;3.48;81.25
84483;BME280;74703;51.284;22.590;2023-12-28T23:14:36;99302.00;;;3.41;81.25
84483;BME280;74703;51.284;22.590;2023-12-28T23:19:41;99305.53;;;3.37;81.04
84483;BME280;74703;51.284;22.590;2023-12-28T23:24:44;99306.44;;;3.36;80.82
84483;BME280;74703;51.284;22.590;2023-12-28T23:29:45;99347.72;;;3.69;80.66
84483;BME280;74703;51.284;22.590;2023-12-28T23:34:45;99303.91;;;3.33;81.31
84483;BME280;74703;51.284;22.590;2023-12-28T23:39:46;99310.53;;;3.45;80.88
84483;BME280;74703;51.284;22.590;2023-12-28T23:44:46;99335.81;;;3.66;80.44
84483;BME280;74703;51.284;22.590;2023-12-28T23:49:47;99324.78;;;3.60;80.69
84483;BME280;74703;51.284;22.590;2023-12-28T23:54:48;99322.31;;;3.54;80.75
84483;BME280;74703;51.284;22.590;2023-12-28T23:59:49;99312.22;;;3.46;81.16
